Terminal Aerodrome Forecast
Issued by NWS

Home | Current Version | Previous Version | Graphics & Text | Print | Product List | Glossary On
Versions: 1 2 3 4 5 6 7 8 9 10 11 12 13 14 15 16 17 18 19 20
424
FTUS43 KMPX 201120
TAFRNH
TAF
KRNH 201120Z 2012/2112 VRB02KT 1/2SM FG BKN002
     FM201300 36004KT P6SM SKC
     FM201800 32007KT P6SM SKC
     FM210200 VRB02KT P6SM SCT250
     FM210700 00000KT 4SM BR SCT250=

USA.gov is the U.S. government's official web portal to all federal, state and local government web resources and services.